Sao Geraldo, Brazil
Current Conditions -  °F | °C
As of 10:00 AM on Thursday 23 Oct 2014 (Local Time) from SBBH Reporting Station
Broken Clouds Broken Clouds  
Wind Chill: 70°   Ceiling: 2000
Heat Index: 70°   Visibility: 6mi
Dew Point: 59°   Wind: 10mph
Humidity: 68%   Direction: 90°E
Pressure: 30.21"   Gusts: NA
Location:  20.92°S, 42.83°W
Report Text: SBBH 231200Z 09009KT 9999 BKN020 21/15 Q1023
Loading
Personal Weather Stations






























Interactive Weather Map
Tropical Storm Tracking
New forecast layout! Learn more

10-Day Weather Forecast

Advertisements
Track Severe Weather on mobile